sensor_id;sensor_type;location;lat;lon;timestamp;temperature;humidity
68804;SHT31;55787;52.678;13.314;2023-07-20T00:02:17;14.76;94.07
68804;SHT31;55787;52.678;13.314;2023-07-20T00:04:44;14.76;94.21
68804;SHT31;55787;52.678;13.314;2023-07-20T00:07:11;14.78;94.14
68804;SHT31;55787;52.678;13.314;2023-07-20T00:09:38;14.78;94.08
68804;SHT31;55787;52.678;13.314;2023-07-20T00:12:05;14.75;94.05
68804;SHT31;55787;52.678;13.314;2023-07-20T00:14:31;14.72;93.91
68804;SHT31;55787;52.678;13.314;2023-07-20T00:16:58;14.67;93.96
68804;SHT31;55787;52.678;13.314;2023-07-20T00:19:26;14.62;94.01
68804;SHT31;55787;52.678;13.314;2023-07-20T00:21:54;14.60;94.08
68804;SHT31;55787;52.678;13.314;2023-07-20T00:24:23;14.57;94.49
68804;SHT31;55787;52.678;13.314;2023-07-20T00:26:50;14.58;94.74
68804;SHT31;55787;52.678;13.314;2023-07-20T00:29:17;14.62;94.96
68804;SHT31;55787;52.678;13.314;2023-07-20T00:31:44;14.64;94.81
68804;SHT31;55787;52.678;13.314;2023-07-20T00:34:13;14.68;94.90
68804;SHT31;55787;52.678;13.314;2023-07-20T00:36:39;14.71;94.91
68804;SHT31;55787;52.678;13.314;2023-07-20T00:39:07;14.75;94.79
68804;SHT31;55787;52.678;13.314;2023-07-20T00:41:34;14.81;94.70
68804;SHT31;55787;52.678;13.314;2023-07-20T00:44:01;14.88;94.23
68804;SHT31;55787;52.678;13.314;2023-07-20T00:46:27;14.91;93.88
68804;SHT31;55787;52.678;13.314;2023-07-20T00:48:54;14.93;93.76
68804;SHT31;55787;52.678;13.314;2023-07-20T00:51:22;14.95;93.61
68804;SHT31;55787;52.678;13.314;2023-07-20T00:53:49;14.92;93.55
68804;SHT31;55787;52.678;13.314;2023-07-20T00:56:16;14.93;93.63
68804;SHT31;55787;52.678;13.314;2023-07-20T00:58:43;14.93;93.50
68804;SHT31;55787;52.678;13.314;2023-07-20T01:01:11;14.86;93.54
68804;SHT31;55787;52.678;13.314;2023-07-20T01:03:37;14.89;93.32
68804;SHT31;55787;52.678;13.314;2023-07-20T01:06:26;14.82;93.47
68804;SHT31;55787;52.678;13.314;2023-07-20T01:11:31;14.62;94.01
68804;SHT31;55787;52.678;13.314;2023-07-20T01:13:59;14.55;94.22
68804;SHT31;55787;52.678;13.314;2023-07-20T01:16:27;14.51;94.23
68804;SHT31;55787;52.678;13.314;2023-07-20T01:18:54;14.40;94.99
68804;SHT31;55787;52.678;13.314;2023-07-20T01:21:54;14.32;95.12
68804;SHT31;55787;52.678;13.314;2023-07-20T01:33:02;14.32;95.77
68804;SHT31;55787;52.678;13.314;2023-07-20T01:35:30;14.37;95.63
68804;SHT31;55787;52.678;13.314;2023-07-20T01:37:58;14.42;95.45
68804;SHT31;55787;52.678;13.314;2023-07-20T01:40:26;14.49;95.18
68804;SHT31;55787;52.678;13.314;2023-07-20T01:42:53;14.55;95.20
68804;SHT31;55787;52.678;13.314;2023-07-20T01:45:20;14.60;95.13
68804;SHT31;55787;52.678;13.314;2023-07-20T01:47:46;14.64;94.75
68804;SHT31;55787;52.678;13.314;2023-07-20T01:50:13;14.68;94.87
68804;SHT31;55787;52.678;13.314;2023-07-20T01:52:40;14.69;94.82
68804;SHT31;55787;52.678;13.314;2023-07-20T01:55:07;14.69;94.83
68804;SHT31;55787;52.678;13.314;2023-07-20T01:57:34;14.75;94.92
68804;SHT31;55787;52.678;13.314;2023-07-20T02:00:01;14.75;94.76
68804;SHT31;55787;52.678;13.314;2023-07-20T02:02:28;14.79;94.69
68804;SHT31;55787;52.678;13.314;2023-07-20T02:04:55;14.85;94.34
68804;SHT31;55787;52.678;13.314;2023-07-20T02:07:22;14.86;94.40
68804;SHT31;55787;52.678;13.314;2023-07-20T02:09:48;14.81;94.69
68804;SHT31;55787;52.678;13.314;2023-07-20T02:12:15;14.86;94.66
68804;SHT31;55787;52.678;13.314;2023-07-20T02:14:42;14.86;94.79
68804;SHT31;55787;52.678;13.314;2023-07-20T02:17:08;14.91;94.55
68804;SHT31;55787;52.678;13.314;2023-07-20T02:19:40;15.00;94.18
68804;SHT31;55787;52.678;13.314;2023-07-20T02:22:07;15.00;94.10
68804;SHT31;55787;52.678;13.314;2023-07-20T02:24:34;14.95;94.35
68804;SHT31;55787;52.678;13.314;2023-07-20T02:27:01;14.96;94.46
68804;SHT31;55787;52.678;13.314;2023-07-20T02:29:27;14.92;94.64
68804;SHT31;55787;52.678;13.314;2023-07-20T02:31:54;14.93;94.51
68804;SHT31;55787;52.678;13.314;2023-07-20T02:34:21;14.91;94.71
68804;SHT31;55787;52.678;13.314;2023-07-20T02:36:47;14.86;95.09
68804;SHT31;55787;52.678;13.314;2023-07-20T02:39:14;14.92;94.78
68804;SHT31;55787;52.678;13.314;2023-07-20T02:41:41;15.04;94.33
68804;SHT31;55787;52.678;13.314;2023-07-20T02:44:08;15.04;94.31
68804;SHT31;55787;52.678;13.314;2023-07-20T02:46:35;15.09;94.25
68804;SHT31;55787;52.678;13.314;2023-07-20T02:49:02;15.13;94.04
68804;SHT31;55787;52.678;13.314;2023-07-20T02:51:28;15.12;94.15
68804;SHT31;55787;52.678;13.314;2023-07-20T02:53:55;15.13;94.14
68804;SHT31;55787;52.678;13.314;2023-07-20T02:56:22;15.19;94.07
68804;SHT31;55787;52.678;13.314;2023-07-20T02:58:50;15.13;93.85
68804;SHT31;55787;52.678;13.314;2023-07-20T03:01:16;15.07;94.14
68804;SHT31;55787;52.678;13.314;2023-07-20T03:03:43;15.07;94.25
68804;SHT31;55787;52.678;13.314;2023-07-20T03:06:14;15.07;94.24
68804;SHT31;55787;52.678;13.314;2023-07-20T03:08:42;15.07;94.30
68804;SHT31;55787;52.678;13.314;2023-07-20T03:11:11;15.16;93.84
68804;SHT31;55787;52.678;13.314;2023-07-20T03:13:38;15.12;93.83
68804;SHT31;55787;52.678;13.314;2023-07-20T03:16:05;14.99;94.56
68804;SHT31;55787;52.678;13.314;2023-07-20T03:18:31;15.02;94.52
68804;SHT31;55787;52.678;13.314;2023-07-20T03:20:58;14.91;94.88
68804;SHT31;55787;52.678;13.314;2023-07-20T03:23:25;14.83;95.41
68804;SHT31;55787;52.678;13.314;2023-07-20T03:25:52;14.86;95.29
68804;SHT31;55787;52.678;13.314;2023-07-20T03:28:21;14.92;94.91
68804;SHT31;55787;52.678;13.314;2023-07-20T03:30:56;14.95;94.57
68804;SHT31;55787;52.678;13.314;2023-07-20T03:33:28;14.99;94.59
68804;SHT31;55787;52.678;13.314;2023-07-20T03:35:56;14.99;94.52
68804;SHT31;55787;52.678;13.314;2023-07-20T03:38:23;15.02;94.49
68804;SHT31;55787;52.678;13.314;2023-07-20T03:40:52;15.09;94.22
68804;SHT31;55787;52.678;13.314;2023-07-20T03:43:19;15.09;94.04
68804;SHT31;55787;52.678;13.314;2023-07-20T03:45:46;15.02;94.16
68804;SHT31;55787;52.678;13.314;2023-07-20T03:48:19;15.03;94.44
68804;SHT31;55787;52.678;13.314;2023-07-20T03:50:46;15.09;94.13
68804;SHT31;55787;52.678;13.314;2023-07-20T03:53:13;15.10;94.24
68804;SHT31;55787;52.678;13.314;2023-07-20T03:55:42;15.13;94.12
68804;SHT31;55787;52.678;13.314;2023-07-20T03:58:11;15.16;93.96
68804;SHT31;55787;52.678;13.314;2023-07-20T04:00:38;15.14;94.03
68804;SHT31;55787;52.678;13.314;2023-07-20T04:03:06;15.14;94.32
68804;SHT31;55787;52.678;13.314;2023-07-20T04:05:33;15.20;93.99
68804;SHT31;55787;52.678;13.314;2023-07-20T04:07:59;15.20;94.15
68804;SHT31;55787;52.678;13.314;2023-07-20T04:10:26;15.20;93.88
68804;SHT31;55787;52.678;13.314;2023-07-20T04:12:53;15.20;93.95
68804;SHT31;55787;52.678;13.314;2023-07-20T04:15:19;15.19;93.90
68804;SHT31;55787;52.678;13.314;2023-07-20T04:17:46;15.24;93.71
68804;SHT31;55787;52.678;13.314;2023-07-20T04:20:13;15.29;93.78
68804;SHT31;55787;52.678;13.314;2023-07-20T04:22:40;15.14;94.02
68804;SHT31;55787;52.678;13.314;2023-07-20T04:25:07;15.20;93.67
68804;SHT31;55787;52.678;13.314;2023-07-20T04:27:34;15.27;93.64
68804;SHT31;55787;52.678;13.314;2023-07-20T04:30:00;15.30;93.54
68804;SHT31;55787;52.678;13.314;2023-07-20T04:32:27;15.41;93.08
68804;SHT31;55787;52.678;13.314;2023-07-20T04:34:54;15.47;92.40
68804;SHT31;55787;52.678;13.314;2023-07-20T04:37:21;15.44;92.62
68804;SHT31;55787;52.678;13.314;2023-07-20T04:39:47;15.54;92.61
68804;SHT31;55787;52.678;13.314;2023-07-20T04:42:14;15.57;91.94
68804;SHT31;55787;52.678;13.314;2023-07-20T04:44:41;15.54;92.28
68804;SHT31;55787;52.678;13.314;2023-07-20T04:47:08;15.54;91.88
68804;SHT31;55787;52.678;13.314;2023-07-20T04:49:35;15.58;91.59
68804;SHT31;55787;52.678;13.314;2023-07-20T04:52:02;15.65;91.65
68804;SHT31;55787;52.678;13.314;2023-07-20T04:54:29;15.75;91.14
68804;SHT31;55787;52.678;13.314;2023-07-20T04:56:56;15.85;90.88
68804;SHT31;55787;52.678;13.314;2023-07-20T04:59:22;15.91;90.51
68804;SHT31;55787;52.678;13.314;2023-07-20T05:01:49;16.00;90.64
68804;SHT31;55787;52.678;13.314;2023-07-20T05:04:15;15.98;89.98
68804;SHT31;55787;52.678;13.314;2023-07-20T05:06:44;16.04;90.21
68804;SHT31;55787;52.678;13.314;2023-07-20T05:09:11;16.12;89.96
68804;SHT31;55787;52.678;13.314;2023-07-20T05:11:38;16.18;89.38
68804;SHT31;55787;52.678;13.314;2023-07-20T05:14:04;16.22;89.18
68804;SHT31;55787;52.678;13.314;2023-07-20T05:16:31;15.92;89.56
68804;SHT31;55787;52.678;13.314;2023-07-20T05:18:58;16.04;89.61
68804;SHT31;55787;52.678;13.314;2023-07-20T05:21:24;16.22;89.23
68804;SHT31;55787;52.678;13.314;2023-07-20T05:23:51;16.39;87.66
68804;SHT31;55787;52.678;13.314;2023-07-20T05:26:18;16.46;87.82
68804;SHT31;55787;52.678;13.314;2023-07-20T05:28:44;16.36;87.61
68804;SHT31;55787;52.678;13.314;2023-07-20T05:31:11;16.38;87.53
68804;SHT31;55787;52.678;13.314;2023-07-20T05:33:38;16.40;87.22
68804;SHT31;55787;52.678;13.314;2023-07-20T05:36:05;16.64;86.68
68804;SHT31;55787;52.678;13.314;2023-07-20T05:38:31;16.69;86.52
68804;SHT31;55787;52.678;13.314;2023-07-20T05:41:01;16.70;85.93
68804;SHT31;55787;52.678;13.314;2023-07-20T05:43:28;16.59;86.11
68804;SHT31;55787;52.678;13.314;2023-07-20T05:45:55;16.55;86.31
68804;SHT31;55787;52.678;13.314;2023-07-20T05:48:23;16.34;86.73
68804;SHT31;55787;52.678;13.314;2023-07-20T05:50:50;16.21;87.27
68804;SHT31;55787;52.678;13.314;2023-07-20T05:53:17;16.26;87.44
68804;SHT31;55787;52.678;13.314;2023-07-20T05:55:51;16.70;86.62
68804;SHT31;55787;52.678;13.314;2023-07-20T05:58:18;16.95;85.75
68804;SHT31;55787;52.678;13.314;2023-07-20T06:00:49;17.00;84.69
68804;SHT31;55787;52.678;13.314;2023-07-20T06:03:16;17.03;84.34
68804;SHT31;55787;52.678;13.314;2023-07-20T06:05:48;16.88;84.54
68804;SHT31;55787;52.678;13.314;2023-07-20T06:08:14;17.22;83.30
68804;SHT31;55787;52.678;13.314;2023-07-20T06:10:41;17.83;81.67
68804;SHT31;55787;52.678;13.314;2023-07-20T06:13:11;18.26;79.42
68804;SHT31;55787;52.678;13.314;2023-07-20T06:15:38;18.87;76.10
68804;SHT31;55787;52.678;13.314;2023-07-20T06:18:05;19.12;75.36
68804;SHT31;55787;52.678;13.314;2023-07-20T06:20:32;19.84;72.39
68804;SHT31;55787;52.678;13.314;2023-07-20T06:22:59;20.01;70.79
68804;SHT31;55787;52.678;13.314;2023-07-20T06:25:26;20.02;70.23
68804;SHT31;55787;52.678;13.314;2023-07-20T06:27:54;19.34;72.10
68804;SHT31;55787;52.678;13.314;2023-07-20T06:30:21;19.73;71.38
68804;SHT31;55787;52.678;13.314;2023-07-20T06:32:48;20.81;69.79
68804;SHT31;55787;52.678;13.314;2023-07-20T06:35:15;21.07;67.15
68804;SHT31;55787;52.678;13.314;2023-07-20T06:37:42;19.74;68.62
68804;SHT31;55787;52.678;13.314;2023-07-20T06:40:09;19.40;71.09
68804;SHT31;55787;52.678;13.314;2023-07-20T06:42:39;19.16;71.23
68804;SHT31;55787;52.678;13.314;2023-07-20T06:45:09;20.52;67.45
68804;SHT31;55787;52.678;13.314;2023-07-20T06:47:38;22.79;62.32
68804;SHT31;55787;52.678;13.314;2023-07-20T06:50:06;23.30;57.58
68804;SHT31;55787;52.678;13.314;2023-07-20T06:52:33;24.78;53.64
68804;SHT31;55787;52.678;13.314;2023-07-20T06:55:00;24.96;52.61
68804;SHT31;55787;52.678;13.314;2023-07-20T06:57:31;25.61;50.94
68804;SHT31;55787;52.678;13.314;2023-07-20T06:59:58;26.09;49.68
68804;SHT31;55787;52.678;13.314;2023-07-20T07:02:25;25.60;50.25
68804;SHT31;55787;52.678;13.314;2023-07-20T07:04:51;24.16;52.73
68804;SHT31;55787;52.678;13.314;2023-07-20T07:07:26;25.60;50.65
68804;SHT31;55787;52.678;13.314;2023-07-20T07:09:53;26.56;47.72
68804;SHT31;55787;52.678;13.314;2023-07-20T07:12:20;27.07;46.64
68804;SHT31;55787;52.678;13.314;2023-07-20T07:14:47;26.15;46.67
68804;SHT31;55787;52.678;13.314;2023-07-20T07:17:13;26.74;47.93
68804;SHT31;55787;52.678;13.314;2023-07-20T07:19:45;24.55;50.85
68804;SHT31;55787;52.678;13.314;2023-07-20T07:22:14;23.28;54.50
68804;SHT31;55787;52.678;13.314;2023-07-20T07:24:41;21.90;57.91
68804;SHT31;55787;52.678;13.314;2023-07-20T07:27:08;22.43;55.88
68804;SHT31;55787;52.678;13.314;2023-07-20T07:29:35;23.02;52.75
68804;SHT31;55787;52.678;13.314;2023-07-20T07:32:02;22.53;53.79
68804;SHT31;55787;52.678;13.314;2023-07-20T07:34:29;23.19;53.71
68804;SHT31;55787;52.678;13.314;2023-07-20T07:36:56;23.94;51.82
68804;SHT31;55787;52.678;13.314;2023-07-20T07:39:22;24.72;50.22
68804;SHT31;55787;52.678;13.314;2023-07-20T07:41:53;24.14;51.54
68804;SHT31;55787;52.678;13.314;2023-07-20T07:44:20;24.21;50.67
68804;SHT31;55787;52.678;13.314;2023-07-20T07:46:48;24.18;50.35
68804;SHT31;55787;52.678;13.314;2023-07-20T07:49:16;24.00;50.52
68804;SHT31;55787;52.678;13.314;2023-07-20T07:51:43;23.35;52.37
68804;SHT31;55787;52.678;13.314;2023-07-20T07:54:09;22.67;52.53
68804;SHT31;55787;52.678;13.314;2023-07-20T07:56:36;22.03;53.23
68804;SHT31;55787;52.678;13.314;2023-07-20T07:59:03;22.65;53.60
68804;SHT31;55787;52.678;13.314;2023-07-20T08:01:31;23.63;52.58
68804;SHT31;55787;52.678;13.314;2023-07-20T08:03:57;24.83;50.90
68804;SHT31;55787;52.678;13.314;2023-07-20T08:06:24;25.05;48.72
68804;SHT31;55787;52.678;13.314;2023-07-20T08:08:52;23.12;51.81
68804;SHT31;55787;52.678;13.314;2023-07-20T08:11:19;22.37;52.31
68804;SHT31;55787;52.678;13.314;2023-07-20T08:13:45;23.11;52.35
68804;SHT31;55787;52.678;13.314;2023-07-20T08:16:12;24.08;51.27
68804;SHT31;55787;52.678;13.314;2023-07-20T08:18:40;24.61;49.92
68804;SHT31;55787;52.678;13.314;2023-07-20T08:21:07;25.33;49.35
68804;SHT31;55787;52.678;13.314;2023-07-20T08:23:33;25.09;48.91
68804;SHT31;55787;52.678;13.314;2023-07-20T08:26:00;24.80;49.79
68804;SHT31;55787;52.678;13.314;2023-07-20T08:28:27;23.36;51.78
68804;SHT31;55787;52.678;13.314;2023-07-20T08:30:55;22.57;52.93
68804;SHT31;55787;52.678;13.314;2023-07-20T08:33:22;22.83;54.30
68804;SHT31;55787;52.678;13.314;2023-07-20T08:35:50;22.13;55.68
68804;SHT31;55787;52.678;13.314;2023-07-20T08:38:16;22.58;55.16
68804;SHT31;55787;52.678;13.314;2023-07-20T08:40:45;22.06;56.54
68804;SHT31;55787;52.678;13.314;2023-07-20T08:43:12;21.82;56.84
68804;SHT31;55787;52.678;13.314;2023-07-20T08:45:40;22.08;55.75
68804;SHT31;55787;52.678;13.314;2023-07-20T08:48:07;21.20;56.21
68804;SHT31;55787;52.678;13.314;2023-07-20T08:50:35;22.10;57.04
68804;SHT31;55787;52.678;13.314;2023-07-20T08:53:02;23.23;54.91
68804;SHT31;55787;52.678;13.314;2023-07-20T08:55:30;22.68;54.06
68804;SHT31;55787;52.678;13.314;2023-07-20T08:57:58;22.21;55.00
68804;SHT31;55787;52.678;13.314;2023-07-20T09:00:26;22.10;55.73
68804;SHT31;55787;52.678;13.314;2023-07-20T09:02:54;21.51;56.98
68804;SHT31;55787;52.678;13.314;2023-07-20T09:05:23;21.75;57.64
68804;SHT31;55787;52.678;13.314;2023-07-20T09:07:53;21.37;58.00
68804;SHT31;55787;52.678;13.314;2023-07-20T09:10:24;20.79;59.10
68804;SHT31;55787;52.678;13.314;2023-07-20T09:12:51;20.59;60.62
68804;SHT31;55787;52.678;13.314;2023-07-20T09:15:19;20.19;62.56
68804;SHT31;55787;52.678;13.314;2023-07-20T09:17:47;19.92;64.08
68804;SHT31;55787;52.678;13.314;2023-07-20T09:20:16;19.90;64.51
68804;SHT31;55787;52.678;13.314;2023-07-20T09:22:47;19.87;64.40
68804;SHT31;55787;52.678;13.314;2023-07-20T09:25:17;19.92;64.62
68804;SHT31;55787;52.678;13.314;2023-07-20T09:27:48;20.05;65.15
68804;SHT31;55787;52.678;13.314;2023-07-20T09:30:18;20.17;63.84
68804;SHT31;55787;52.678;13.314;2023-07-20T09:32:49;19.94;63.02
68804;SHT31;55787;52.678;13.314;2023-07-20T09:35:21;20.57;63.16
68804;SHT31;55787;52.678;13.314;2023-07-20T09:38:01;21.18;62.01
68804;SHT31;55787;52.678;13.314;2023-07-20T09:40:30;20.24;62.62
68804;SHT31;55787;52.678;13.314;2023-07-20T09:43:08;20.89;63.20
68804;SHT31;55787;52.678;13.314;2023-07-20T09:45:42;20.72;62.42
68804;SHT31;55787;52.678;13.314;2023-07-20T09:48:11;20.55;61.70
68804;SHT31;55787;52.678;13.314;2023-07-20T09:50:43;20.50;62.57
68804;SHT31;55787;52.678;13.314;2023-07-20T09:53:16;20.39;62.60
68804;SHT31;55787;52.678;13.314;2023-07-20T09:55:45;20.31;62.26
68804;SHT31;55787;52.678;13.314;2023-07-20T09:58:15;19.77;62.84
68804;SHT31;55787;52.678;13.314;2023-07-20T10:00:43;20.35;60.78
68804;SHT31;55787;52.678;13.314;2023-07-20T10:03:21;20.52;60.48
68804;SHT31;55787;52.678;13.314;2023-07-20T10:05:54;21.03;59.57
68804;SHT31;55787;52.678;13.314;2023-07-20T10:08:29;21.12;58.52
68804;SHT31;55787;52.678;13.314;2023-07-20T10:11:00;21.23;58.19
68804;SHT31;55787;52.678;13.314;2023-07-20T10:13:29;21.07;59.24
68804;SHT31;55787;52.678;13.314;2023-07-20T10:16:02;20.89;60.25
68804;SHT31;55787;52.678;13.314;2023-07-20T10:21:19;20.60;59.75
68804;SHT31;55787;52.678;13.314;2023-07-20T10:23:50;20.62;60.26
68804;SHT31;55787;52.678;13.314;2023-07-20T10:26:16;21.12;59.41
68804;SHT31;55787;52.678;13.314;2023-07-20T10:28:43;21.17;59.11
68804;SHT31;55787;52.678;13.314;2023-07-20T10:31:11;21.93;57.40
68804;SHT31;55787;52.678;13.314;2023-07-20T10:33:39;22.47;57.23
68804;SHT31;55787;52.678;13.314;2023-07-20T10:36:06;22.27;57.14
68804;SHT31;55787;52.678;13.314;2023-07-20T10:41:20;20.65;59.35
68804;SHT31;55787;52.678;13.314;2023-07-20T10:43:49;20.46;61.92
68804;SHT31;55787;52.678;13.314;2023-07-20T10:46:34;20.10;62.21
68804;SHT31;55787;52.678;13.314;2023-07-20T10:49:03;20.11;63.42
68804;SHT31;55787;52.678;13.314;2023-07-20T10:51:48;19.73;64.77
68804;SHT31;55787;52.678;13.314;2023-07-20T10:56:49;20.04;62.94
68804;SHT31;55787;52.678;13.314;2023-07-20T11:01:58;19.98;62.76
68804;SHT31;55787;52.678;13.314;2023-07-20T11:04:54;21.82;60.85
68804;SHT31;55787;52.678;13.314;2023-07-20T11:07:38;22.97;57.07
68804;SHT31;55787;52.678;13.314;2023-07-20T11:10:14;24.79;53.37
68804;SHT31;55787;52.678;13.314;2023-07-20T11:13:20;26.72;49.91
68804;SHT31;55787;52.678;13.314;2023-07-20T11:18:27;25.98;50.15
68804;SHT31;55787;52.678;13.314;2023-07-20T11:20:54;23.77;51.86
68804;SHT31;55787;52.678;13.314;2023-07-20T11:23:21;23.71;54.56
68804;SHT31;55787;52.678;13.314;2023-07-20T11:25:49;23.09;53.41
68804;SHT31;55787;52.678;13.314;2023-07-20T11:28:16;22.77;55.73
68804;SHT31;55787;52.678;13.314;2023-07-20T11:30:43;22.60;57.05
68804;SHT31;55787;52.678;13.314;2023-07-20T11:33:09;22.03;53.88
68804;SHT31;55787;52.678;13.314;2023-07-20T11:35:42;21.86;54.35
68804;SHT31;55787;52.678;13.314;2023-07-20T11:38:09;21.03;55.77
68804;SHT31;55787;52.678;13.314;2023-07-20T11:40:36;21.68;55.31
68804;SHT31;55787;52.678;13.314;2023-07-20T11:43:03;21.88;53.92
68804;SHT31;55787;52.678;13.314;2023-07-20T11:45:32;22.65;54.32
68804;SHT31;55787;52.678;13.314;2023-07-20T11:47:59;22.77;53.93
68804;SHT31;55787;52.678;13.314;2023-07-20T11:50:27;22.50;54.70
68804;SHT31;55787;52.678;13.314;2023-07-20T11:52:53;21.95;54.21
68804;SHT31;55787;52.678;13.314;2023-07-20T11:55:20;21.27;54.90
68804;SHT31;55787;52.678;13.314;2023-07-20T11:58:06;21.74;54.90
68804;SHT31;55787;52.678;13.314;2023-07-20T12:00:34;21.82;53.77
68804;SHT31;55787;52.678;13.314;2023-07-20T12:03:01;22.36;52.90
68804;SHT31;55787;52.678;13.314;2023-07-20T12:05:28;22.50;52.90
68804;SHT31;55787;52.678;13.314;2023-07-20T12:07:54;22.44;51.35
68804;SHT31;55787;52.678;13.314;2023-07-20T12:10:26;23.66;51.41
68804;SHT31;55787;52.678;13.314;2023-07-20T12:12:54;23.86;48.57
68804;SHT31;55787;52.678;13.314;2023-07-20T12:17:52;26.42;46.41
68804;SHT31;55787;52.678;13.314;2023-07-20T12:20:33;26.83;43.35
68804;SHT31;55787;52.678;13.314;2023-07-20T12:23:08;28.20;41.18
68804;SHT31;55787;52.678;13.314;2023-07-20T12:25:47;28.78;39.60
68804;SHT31;55787;52.678;13.314;2023-07-20T12:28:16;27.65;40.08
68804;SHT31;55787;52.678;13.314;2023-07-20T12:30:44;28.71;39.23
68804;SHT31;55787;52.678;13.314;2023-07-20T12:33:12;28.20;39.20
68804;SHT31;55787;52.678;13.314;2023-07-20T12:35:42;28.58;37.64
68804;SHT31;55787;52.678;13.314;2023-07-20T12:38:09;29.03;38.71
68804;SHT31;55787;52.678;13.314;2023-07-20T12:40:36;29.81;36.18
68804;SHT31;55787;52.678;13.314;2023-07-20T12:43:03;28.92;33.35
68804;SHT31;55787;52.678;13.314;2023-07-20T12:45:31;28.87;33.54
68804;SHT31;55787;52.678;13.314;2023-07-20T12:47:58;30.08;34.60
68804;SHT31;55787;52.678;13.314;2023-07-20T12:50:25;28.06;34.89
68804;SHT31;55787;52.678;13.314;2023-07-20T12:52:51;28.50;34.61
68804;SHT31;55787;52.678;13.314;2023-07-20T12:55:18;29.50;34.37
68804;SHT31;55787;52.678;13.314;2023-07-20T12:57:46;30.24;35.54
68804;SHT31;55787;52.678;13.314;2023-07-20T13:00:14;30.63;35.17
68804;SHT31;55787;52.678;13.314;2023-07-20T13:02:41;30.92;33.77
68804;SHT31;55787;52.678;13.314;2023-07-20T13:05:08;31.10;34.49
68804;SHT31;55787;52.678;13.314;2023-07-20T13:07:37;29.93;31.51
68804;SHT31;55787;52.678;13.314;2023-07-20T13:10:08;30.05;34.03
68804;SHT31;55787;52.678;13.314;2023-07-20T13:12:36;29.30;33.83
68804;SHT31;55787;52.678;13.314;2023-07-20T13:15:05;29.25;35.40
68804;SHT31;55787;52.678;13.314;2023-07-20T13:17:33;26.87;35.65
68804;SHT31;55787;52.678;13.314;2023-07-20T13:20:01;26.50;36.79
68804;SHT31;55787;52.678;13.314;2023-07-20T13:22:28;27.82;37.16
68804;SHT31;55787;52.678;13.314;2023-07-20T13:24:55;28.26;35.34
68804;SHT31;55787;52.678;13.314;2023-07-20T13:27:21;28.33;35.33
68804;SHT31;55787;52.678;13.314;2023-07-20T13:29:48;28.47;35.91
68804;SHT31;55787;52.678;13.314;2023-07-20T13:32:15;28.02;35.03
68804;SHT31;55787;52.678;13.314;2023-07-20T13:34:43;27.56;36.47
68804;SHT31;55787;52.678;13.314;2023-07-20T13:37:14;26.69;36.11
68804;SHT31;55787;52.678;13.314;2023-07-20T13:39:42;25.36;38.56
68804;SHT31;55787;52.678;13.314;2023-07-20T13:42:10;24.92;38.62
68804;SHT31;55787;52.678;13.314;2023-07-20T13:44:38;24.68;39.59
68804;SHT31;55787;52.678;13.314;2023-07-20T13:47:05;24.41;40.72
68804;SHT31;55787;52.678;13.314;2023-07-20T13:49:35;25.17;39.57
68804;SHT31;55787;52.678;13.314;2023-07-20T13:52:12;25.92;39.54
68804;SHT31;55787;52.678;13.314;2023-07-20T13:54:41;25.80;40.19
68804;SHT31;55787;52.678;13.314;2023-07-20T13:57:11;25.80;41.08
68804;SHT31;55787;52.678;13.314;2023-07-20T13:59:38;25.64;40.33
68804;SHT31;55787;52.678;13.314;2023-07-20T14:02:05;25.48;40.00
68804;SHT31;55787;52.678;13.314;2023-07-20T14:04:34;25.34;39.26
68804;SHT31;55787;52.678;13.314;2023-07-20T14:07:02;25.10;42.53
68804;SHT31;55787;52.678;13.314;2023-07-20T14:09:29;25.24;39.08
68804;SHT31;55787;52.678;13.314;2023-07-20T14:11:56;25.23;38.66
68804;SHT31;55787;52.678;13.314;2023-07-20T14:14:25;25.80;39.08
68804;SHT31;55787;52.678;13.314;2023-07-20T14:16:52;26.09;40.39
68804;SHT31;55787;52.678;13.314;2023-07-20T14:19:19;25.48;38.27
68804;SHT31;55787;52.678;13.314;2023-07-20T14:21:46;24.65;39.11
68804;SHT31;55787;52.678;13.314;2023-07-20T14:24:12;25.03;41.77
68804;SHT31;55787;52.678;13.314;2023-07-20T14:26:40;24.24;39.71
68804;SHT31;55787;52.678;13.314;2023-07-20T14:29:09;24.21;41.80
68804;SHT31;55787;52.678;13.314;2023-07-20T14:31:36;24.42;40.88
68804;SHT31;55787;52.678;13.314;2023-07-20T14:34:03;24.06;41.55
68804;SHT31;55787;52.678;13.314;2023-07-20T14:36:30;24.21;40.59
68804;SHT31;55787;52.678;13.314;2023-07-20T14:38:59;24.96;40.72
68804;SHT31;55787;52.678;13.314;2023-07-20T14:41:26;25.16;40.07
68804;SHT31;55787;52.678;13.314;2023-07-20T14:43:53;25.05;40.82
68804;SHT31;55787;52.678;13.314;2023-07-20T14:46:20;25.38;41.42
68804;SHT31;55787;52.678;13.314;2023-07-20T14:48:47;25.47;41.06
68804;SHT31;55787;52.678;13.314;2023-07-20T14:51:14;25.05;39.03
68804;SHT31;55787;52.678;13.314;2023-07-20T14:53:41;25.15;40.26
68804;SHT31;55787;52.678;13.314;2023-07-20T14:56:08;24.80;40.62
68804;SHT31;55787;52.678;13.314;2023-07-20T14:58:35;24.78;39.52
68804;SHT31;55787;52.678;13.314;2023-07-20T15:01:02;24.34;38.42
68804;SHT31;55787;52.678;13.314;2023-07-20T15:03:30;24.80;39.97
68804;SHT31;55787;52.678;13.314;2023-07-20T15:06:01;24.79;39.23
68804;SHT31;55787;52.678;13.314;2023-07-20T15:08:27;24.41;39.53
68804;SHT31;55787;52.678;13.314;2023-07-20T15:10:54;23.83;41.51
68804;SHT31;55787;52.678;13.314;2023-07-20T15:13:21;24.04;42.37
68804;SHT31;55787;52.678;13.314;2023-07-20T15:15:49;23.94;42.16
68804;SHT31;55787;52.678;13.314;2023-07-20T15:18:15;23.81;42.57
68804;SHT31;55787;52.678;13.314;2023-07-20T15:20:42;24.14;42.50
68804;SHT31;55787;52.678;13.314;2023-07-20T15:23:09;24.54;43.03
68804;SHT31;55787;52.678;13.314;2023-07-20T15:25:37;24.38;43.36
68804;SHT31;55787;52.678;13.314;2023-07-20T15:28:03;24.28;44.04
68804;SHT31;55787;52.678;13.314;2023-07-20T15:30:30;24.22;43.45
68804;SHT31;55787;52.678;13.314;2023-07-20T15:33:00;24.31;45.21
68804;SHT31;55787;52.678;13.314;2023-07-20T15:35:30;24.17;44.16
68804;SHT31;55787;52.678;13.314;2023-07-20T15:37:58;24.13;44.85
68804;SHT31;55787;52.678;13.314;2023-07-20T15:40:26;23.81;44.74
68804;SHT31;55787;52.678;13.314;2023-07-20T15:42:52;23.70;45.39
68804;SHT31;55787;52.678;13.314;2023-07-20T15:45:21;23.57;46.17
68804;SHT31;55787;52.678;13.314;2023-07-20T15:47:47;23.50;45.89
68804;SHT31;55787;52.678;13.314;2023-07-20T15:50:15;23.41;45.48